createdAt,value
2019-03-29T00:00:08.557Z,43.10
2019-03-29T00:02:43.357Z,43.00
2019-03-29T00:05:16.581Z,43.10
2019-03-29T00:07:49.829Z,43.20
2019-03-29T00:10:23.053Z,43.30
2019-03-29T00:12:57.086Z,43.30
2019-03-29T00:15:30.580Z,43.30
2019-03-29T00:18:03.840Z,43.30
2019-03-29T00:20:37.064Z,43.30
2019-03-29T00:23:10.313Z,43.40
2019-03-29T00:25:43.537Z,43.20
2019-03-29T00:28:16.785Z,43.20
2019-03-29T00:30:50.011Z,43.20
2019-03-29T00:33:23.948Z,43.40
2019-03-29T00:35:57.170Z,43.40
2019-03-29T00:38:30.402Z,43.50
2019-03-29T00:41:03.916Z,43.60
2019-03-29T00:43:37.124Z,43.60
2019-03-29T00:46:10.393Z,43.60
2019-03-29T00:48:43.659Z,43.60
2019-03-29T00:51:16.979Z,43.50
2019-03-29T00:53:50.215Z,43.60
2019-03-29T00:56:23.440Z,43.50
2019-03-29T00:58:56.696Z,43.50
2019-03-29T01:01:29.914Z,43.50
2019-03-29T01:04:03.292Z,43.50
2019-03-29T01:06:38.443Z,43.50
2019-03-29T01:09:12.404Z,43.50
2019-03-29T01:11:45.624Z,43.60
2019-03-29T01:14:18.866Z,43.40
2019-03-29T01:16:52.072Z,43.60
2019-03-29T01:19:25.316Z,43.70
2019-03-29T01:21:58.532Z,43.70
2019-03-29T01:24:33.964Z,43.70
2019-03-29T01:27:07.198Z,43.60
2019-03-29T01:29:40.414Z,44.20
2019-03-29T01:32:13.652Z,43.80
2019-03-29T01:34:46.899Z,43.80
2019-03-29T01:37:20.172Z,43.90
2019-03-29T01:39:53.395Z,43.90
2019-03-29T01:42:26.636Z,44.10
2019-03-29T01:44:59.861Z,44.10
2019-03-29T01:47:33.117Z,44.10
2019-03-29T01:50:07.956Z,44.10
2019-03-29T01:52:41.383Z,44.20
2019-03-29T01:55:14.627Z,44.20
2019-03-29T01:57:48.917Z,44.20
2019-03-29T02:00:36.096Z,44.30
2019-03-29T02:03:09.565Z,44.30
2019-03-29T02:05:42.884Z,44.30
2019-03-29T02:08:16.115Z,44.30
2019-03-29T02:10:49.373Z,44.30
2019-03-29T02:13:22.614Z,44.40
2019-03-29T02:15:55.910Z,44.40
2019-03-29T02:18:29.160Z,44.40
2019-03-29T02:21:02.375Z,44.40
2019-03-29T02:23:35.633Z,44.50
2019-03-29T02:26:09.167Z,44.60
2019-03-29T02:28:44.226Z,44.60
2019-03-29T02:31:18.261Z,44.60
2019-03-29T02:33:51.535Z,44.60
2019-03-29T02:36:24.753Z,44.50
2019-03-29T02:38:59.216Z,44.50
2019-03-29T02:41:32.706Z,44.60
2019-03-29T02:44:06.568Z,44.60
2019-03-29T02:46:40.826Z,44.50
2019-03-29T02:49:14.088Z,45.20
2019-03-29T02:51:47.333Z,44.50
2019-03-29T02:54:20.575Z,44.40
2019-03-29T02:56:53.796Z,44.40
2019-03-29T02:59:27.036Z,44.30
2019-03-29T03:02:00.574Z,44.40
2019-03-29T03:04:33.798Z,44.50
2019-03-29T03:07:07.024Z,44.40
2019-03-29T03:09:40.257Z,44.50
2019-03-29T03:12:13.487Z,44.60
2019-03-29T03:14:46.715Z,44.70
2019-03-29T03:17:19.930Z,44.70
2019-03-29T03:19:53.175Z,44.70
2019-03-29T03:22:26.399Z,44.80
2019-03-29T03:24:59.643Z,44.80
2019-03-29T03:27:32.859Z,44.90
2019-03-29T03:30:07.402Z,45.60
2019-03-29T03:32:40.649Z,44.90
2019-03-29T03:35:14.003Z,44.80
2019-03-29T03:37:47.311Z,44.80
2019-03-29T03:40:20.581Z,44.80
2019-03-29T03:42:53.791Z,45.10
2019-03-29T03:45:27.035Z,45.00
2019-03-29T03:48:00.255Z,45.70
2019-03-29T03:50:40.449Z,45.00
2019-03-29T03:53:13.661Z,45.10
2019-03-29T03:55:46.903Z,45.20
2019-03-29T03:58:20.118Z,45.20
2019-03-29T04:00:58.342Z,45.20
2019-03-29T04:03:31.704Z,45.20
2019-03-29T04:06:04.979Z,45.10
2019-03-29T04:08:38.191Z,45.00
2019-03-29T04:11:11.382Z,45.00
2019-03-29T04:13:44.583Z,44.90
2019-03-29T04:16:17.840Z,45.00
2019-03-29T04:18:51.051Z,45.10
2019-03-29T04:21:24.289Z,45.00
2019-03-29T04:23:57.518Z,44.90
2019-03-29T04:26:30.749Z,45.00
2019-03-29T04:29:05.356Z,45.00
2019-03-29T04:31:38.888Z,45.00
2019-03-29T04:34:12.101Z,45.10
2019-03-29T04:36:45.342Z,45.10
2019-03-29T04:39:18.558Z,45.10
2019-03-29T04:41:51.796Z,45.20
2019-03-29T04:44:25.017Z,45.40
2019-03-29T04:46:58.263Z,45.00
2019-03-29T04:49:31.485Z,45.10
2019-03-29T04:52:04.768Z,45.30
2019-03-29T04:54:38.059Z,45.40
2019-03-29T04:57:11.239Z,45.40
2019-03-29T04:59:44.466Z,45.30
2019-03-29T05:02:17.719Z,45.40
2019-03-29T05:04:50.945Z,45.40
2019-03-29T05:07:24.250Z,45.50
2019-03-29T05:09:57.468Z,45.50
2019-03-29T05:12:30.736Z,45.50
2019-03-29T05:15:03.974Z,45.50
2019-03-29T05:17:37.218Z,45.60
2019-03-29T05:20:10.445Z,45.70
2019-03-29T05:22:43.677Z,45.60
2019-03-29T05:25:16.896Z,45.30
2019-03-29T05:27:50.144Z,45.50
2019-03-29T05:30:23.370Z,45.50
2019-03-29T05:32:56.602Z,45.50
2019-03-29T05:35:29.828Z,45.40
2019-03-29T05:38:03.081Z,45.20
2019-03-29T05:40:36.304Z,45.20
2019-03-29T05:43:09.545Z,45.30
2019-03-29T05:45:42.768Z,45.40
2019-03-29T05:48:16.023Z,45.60
2019-03-29T05:50:49.404Z,45.60
2019-03-29T05:53:22.652Z,45.80
2019-03-29T05:55:55.867Z,46.10
2019-03-29T05:58:29.109Z,46.00
2019-03-29T06:01:02.344Z,46.20
2019-03-29T06:03:35.578Z,46.30
2019-03-29T06:06:08.830Z,46.40
2019-03-29T06:08:42.052Z,46.50
2019-03-29T06:11:15.386Z,46.60
2019-03-29T06:13:48.615Z,46.80
2019-03-29T06:16:21.872Z,46.70
2019-03-29T06:18:55.133Z,47.00
2019-03-29T06:21:28.364Z,46.90
2019-03-29T06:24:01.614Z,46.90
2019-03-29T06:26:34.857Z,47.00
2019-03-29T06:29:08.109Z,47.00
2019-03-29T06:31:41.378Z,47.10
2019-03-29T06:34:14.603Z,47.10
2019-03-29T06:36:47.859Z,47.20
2019-03-29T06:39:21.453Z,47.20
2019-03-29T06:41:54.790Z,47.30
2019-03-29T06:44:28.011Z,47.30
2019-03-29T06:47:01.191Z,47.30
2019-03-29T06:49:34.439Z,47.40
2019-03-29T06:52:07.714Z,47.50
2019-03-29T06:54:40.949Z,48.10
2019-03-29T06:57:14.194Z,47.60
2019-03-29T06:59:47.444Z,47.70
2019-03-29T07:02:21.872Z,47.60
2019-03-29T07:04:55.180Z,48.10
2019-03-29T07:07:28.438Z,48.50
2019-03-29T07:10:01.668Z,48.10
2019-03-29T07:12:34.928Z,48.20
2019-03-29T07:15:08.235Z,48.10
2019-03-29T07:17:41.485Z,48.30
2019-03-29T07:20:14.705Z,48.40
2019-03-29T07:22:47.957Z,48.50
2019-03-29T07:25:21.120Z,48.70
2019-03-29T07:27:54.377Z,48.80
2019-03-29T07:30:27.642Z,48.80
2019-03-29T07:33:00.903Z,49.00
2019-03-29T07:35:34.147Z,49.10
2019-03-29T07:38:07.401Z,49.10
2019-03-29T07:40:40.647Z,49.80
2019-03-29T07:43:13.901Z,49.10
2019-03-29T07:45:47.125Z,49.20
2019-03-29T07:48:20.397Z,49.20
2019-03-29T07:50:53.668Z,49.10
2019-03-29T07:53:27.881Z,49.00
2019-03-29T07:56:01.109Z,48.70
2019-03-29T07:58:34.351Z,48.80
2019-03-29T08:01:08.373Z,48.70
2019-03-29T08:03:41.813Z,48.70
2019-03-29T08:06:15.025Z,48.60
2019-03-29T08:08:48.270Z,48.40
2019-03-29T08:11:26.346Z,48.30
2019-03-29T08:13:57.170Z,48.00
2019-03-29T08:16:30.394Z,48.00
2019-03-29T08:19:03.635Z,47.80
2019-03-29T08:21:36.851Z,47.20
2019-03-29T08:24:10.136Z,46.90
2019-03-29T08:26:43.394Z,46.50
2019-03-29T08:29:16.705Z,46.60
2019-03-29T08:31:49.915Z,45.90
2019-03-29T08:34:23.166Z,45.60
2019-03-29T08:36:56.389Z,45.50
2019-03-29T08:39:29.631Z,45.00
2019-03-29T08:42:02.998Z,44.60
2019-03-29T08:44:36.240Z,44.30
2019-03-29T08:47:11.027Z,44.10
2019-03-29T08:49:44.277Z,44.10
2019-03-29T08:52:17.517Z,44.10
2019-03-29T08:54:51.336Z,43.50
2019-03-29T08:57:24.797Z,43.10
2019-03-29T08:59:58.053Z,42.80
2019-03-29T09:02:31.213Z,42.40
2019-03-29T09:05:04.491Z,42.00
2019-03-29T09:07:44.769Z,41.80
2019-03-29T09:10:26.226Z,41.60
2019-03-29T09:12:59.526Z,42.00
2019-03-29T09:15:32.772Z,41.40
2019-03-29T09:18:06.009Z,41.50
2019-03-29T09:20:39.247Z,41.30
2019-03-29T09:23:12.540Z,41.50
2019-03-29T09:25:48.460Z,42.20
2019-03-29T09:28:21.684Z,41.60
2019-03-29T09:30:56.781Z,41.70
2019-03-29T09:33:29.855Z,41.20
2019-03-29T09:36:05.002Z,41.60
2019-03-29T09:38:39.586Z,41.50
2019-03-29T09:41:12.832Z,41.10
2019-03-29T09:43:47.122Z,41.10
2019-03-29T09:46:20.363Z,40.40
2019-03-29T09:48:53.841Z,41.40
2019-03-29T09:51:27.114Z,40.80
2019-03-29T09:54:00.348Z,40.20
2019-03-29T09:56:39.191Z,39.50
2019-03-29T09:59:09.574Z,39.80
2019-03-29T10:01:42.818Z,40.20
2019-03-29T10:04:16.049Z,40.00
2019-03-29T10:06:49.317Z,40.10
2019-03-29T10:09:22.544Z,39.30
2019-03-29T10:11:55.818Z,38.60
2019-03-29T10:14:29.037Z,37.50
2019-03-29T10:17:02.273Z,37.20
2019-03-29T10:19:35.566Z,37.90
2019-03-29T10:22:08.827Z,37.60
2019-03-29T10:24:42.067Z,37.50
2019-03-29T10:27:18.745Z,37.20
2019-03-29T10:29:50.230Z,36.80
2019-03-29T10:32:23.484Z,37.10
2019-03-29T10:34:56.715Z,37.20
2019-03-29T10:37:29.955Z,36.80
2019-03-29T10:40:03.172Z,36.50
2019-03-29T10:42:39.855Z,35.60
2019-03-29T10:45:11.541Z,35.00
2019-03-29T10:47:45.167Z,34.60
2019-03-29T10:50:18.909Z,34.60
2019-03-29T10:52:52.611Z,33.80
2019-03-29T10:55:26.110Z,33.50
2019-03-29T10:57:59.684Z,33.30
2019-03-29T11:00:40.730Z,33.10
2019-03-29T11:03:14.135Z,32.90
2019-03-29T11:05:47.483Z,32.20
2019-03-29T11:08:20.912Z,33.10
2019-03-29T11:10:54.495Z,32.10
2019-03-29T11:13:28.489Z,32.20
2019-03-29T11:16:01.901Z,32.10
2019-03-29T11:18:37.018Z,31.90
2019-03-29T11:21:10.806Z,32.60
2019-03-29T11:23:44.396Z,31.90
2019-03-29T11:26:17.921Z,31.80
2019-03-29T11:28:51.530Z,32.40
2019-03-29T11:31:26.056Z,32.60
2019-03-29T11:34:02.780Z,33.00
2019-03-29T11:36:36.400Z,32.90
2019-03-29T11:39:10.770Z,32.80
2019-03-29T11:41:45.357Z,32.90
2019-03-29T11:44:19.003Z,33.40
2019-03-29T11:46:52.878Z,33.70
2019-03-29T11:49:26.404Z,33.60
2019-03-29T11:52:00.194Z,33.30
2019-03-29T11:54:33.544Z,34.30
2019-03-29T11:57:07.274Z,33.80
2019-03-29T11:59:40.684Z,34.00
2019-03-29T12:02:14.023Z,34.00
2019-03-29T12:04:47.563Z,34.90
2019-03-29T12:07:21.256Z,34.20
2019-03-29T12:09:54.661Z,34.30
2019-03-29T12:12:28.199Z,34.00
2019-03-29T12:15:01.594Z,33.60
2019-03-29T12:17:35.559Z,33.50
2019-03-29T12:20:10.467Z,33.60
2019-03-29T12:22:44.091Z,33.70
2019-03-29T12:25:17.602Z,33.80
2019-03-29T12:27:51.153Z,34.00
2019-03-29T12:30:31.972Z,34.80
2019-03-29T12:33:00.122Z,33.90
2019-03-29T12:35:33.471Z,35.20
2019-03-29T12:38:07.814Z,34.50
2019-03-29T12:40:41.071Z,34.50
2019-03-29T12:43:14.323Z,34.90
2019-03-29T12:45:47.782Z,34.60
2019-03-29T12:48:21.337Z,34.60
2019-03-29T12:50:54.779Z,35.10
2019-03-29T12:53:28.165Z,35.90
2019-03-29T12:56:03.876Z,35.10
2019-03-29T12:58:37.272Z,35.10
2019-03-29T13:01:10.527Z,35.40
2019-03-29T13:03:43.768Z,35.70
2019-03-29T13:06:17.005Z,35.00
2019-03-29T13:08:50.246Z,35.30
2019-03-29T13:11:23.503Z,35.40
2019-03-29T13:14:09.468Z,35.60
2019-03-29T13:16:31.784Z,36.10
2019-03-29T13:19:05.006Z,35.20
2019-03-29T13:21:38.981Z,35.20
2019-03-29T13:24:15.861Z,35.40
2019-03-29T13:26:49.142Z,35.40
2019-03-29T13:29:22.484Z,36.10
2019-03-29T13:31:56.260Z,35.80
2019-03-29T13:34:29.594Z,35.40
2019-03-29T13:37:02.935Z,35.30
2019-03-29T13:39:36.286Z,35.40
2019-03-29T13:42:09.832Z,35.40
2019-03-29T13:44:43.151Z,35.30
2019-03-29T13:47:18.216Z,35.50
2019-03-29T13:49:51.742Z,35.20
2019-03-29T13:52:26.091Z,35.00
2019-03-29T13:54:59.474Z,35.20
2019-03-29T13:57:33.151Z,35.30
2019-03-29T14:00:09.300Z,35.00
2019-03-29T14:02:43.082Z,35.20
2019-03-29T14:05:17.127Z,35.20
2019-03-29T14:07:50.854Z,35.30
2019-03-29T14:10:24.680Z,35.20
2019-03-29T14:12:58.656Z,35.10
2019-03-29T14:15:33.274Z,35.00
2019-03-29T14:18:07.087Z,35.10
2019-03-29T14:20:41.164Z,35.10
2019-03-29T14:23:15.101Z,35.10
2019-03-29T14:25:50.539Z,35.20
2019-03-29T14:28:24.439Z,35.20
2019-03-29T14:30:58.135Z,35.10
2019-03-29T14:33:33.181Z,35.60
2019-03-29T14:36:07.171Z,35.80
2019-03-29T14:38:40.693Z,35.50
2019-03-29T14:41:14.048Z,35.70
2019-03-29T14:43:47.371Z,35.70
2019-03-29T14:46:20.666Z,35.90
2019-03-29T14:48:53.989Z,35.90
2019-03-29T14:51:27.281Z,35.60
2019-03-29T14:54:00.535Z,35.50
2019-03-29T14:56:33.772Z,35.30
2019-03-29T14:59:07.253Z,35.20
2019-03-29T15:01:40.574Z,35.10
2019-03-29T15:04:13.911Z,35.20
2019-03-29T15:06:47.231Z,35.10
2019-03-29T15:09:20.618Z,35.10
2019-03-29T15:11:53.971Z,35.10
2019-03-29T15:14:27.548Z,34.90
2019-03-29T15:17:00.801Z,35.40
2019-03-29T15:19:34.034Z,35.10
2019-03-29T15:22:07.307Z,35.20
2019-03-29T15:24:40.612Z,35.10
2019-03-29T15:27:13.921Z,34.90
2019-03-29T15:29:47.176Z,34.90
2019-03-29T15:32:20.549Z,34.70
2019-03-29T15:34:53.861Z,34.70
2019-03-29T15:37:27.298Z,34.60
2019-03-29T15:40:00.647Z,34.80
2019-03-29T15:42:35.286Z,34.80
2019-03-29T15:45:19.750Z,34.80
2019-03-29T15:47:43.793Z,35.00
2019-03-29T15:50:17.156Z,35.10
2019-03-29T15:52:50.534Z,35.00
2019-03-29T15:55:23.840Z,35.10
2019-03-29T15:57:57.516Z,35.30
2019-03-29T16:00:31.908Z,35.10
2019-03-29T16:03:05.645Z,35.20
2019-03-29T16:05:39.113Z,35.00
2019-03-29T16:08:13.654Z,35.00
2019-03-29T16:10:47.283Z,35.20
2019-03-29T16:13:20.562Z,34.80
2019-03-29T16:15:53.853Z,35.00
2019-03-29T16:18:27.094Z,34.80
2019-03-29T16:21:00.340Z,34.70
2019-03-29T16:23:34.732Z,34.40
2019-03-29T16:26:07.974Z,34.60
2019-03-29T16:28:41.139Z,34.50
2019-03-29T16:31:14.355Z,34.40
2019-03-29T16:33:47.605Z,34.40
2019-03-29T16:36:20.822Z,34.30
2019-03-29T16:38:54.070Z,34.70
2019-03-29T16:41:27.294Z,34.90
2019-03-29T16:44:00.533Z,34.60
2019-03-29T16:46:33.752Z,34.40
2019-03-29T16:49:07.089Z,34.30
2019-03-29T16:51:40.525Z,34.50
2019-03-29T16:54:13.735Z,34.60
2019-03-29T16:56:46.955Z,34.40
2019-03-29T16:59:20.256Z,34.20
2019-03-29T17:01:53.460Z,34.40
2019-03-29T17:04:26.714Z,34.50
2019-03-29T17:06:59.936Z,34.40
2019-03-29T17:09:33.177Z,34.40
2019-03-29T17:12:06.396Z,34.40
2019-03-29T17:14:39.633Z,34.50
2019-03-29T17:17:12.847Z,34.30
2019-03-29T17:19:46.088Z,34.40
2019-03-29T17:22:19.315Z,34.40
2019-03-29T17:24:57.171Z,34.30
2019-03-29T17:27:27.452Z,34.10
2019-03-29T17:30:00.683Z,34.10
2019-03-29T17:32:34.468Z,34.20
2019-03-29T17:35:08.189Z,34.20
2019-03-29T17:37:41.526Z,35.00
2019-03-29T17:40:14.758Z,34.30
2019-03-29T17:42:47.983Z,34.10
2019-03-29T17:45:21.157Z,34.10
2019-03-29T17:47:54.372Z,34.20
2019-03-29T17:50:27.637Z,34.30
2019-03-29T17:53:00.851Z,34.20
2019-03-29T17:55:34.147Z,34.30
2019-03-29T17:58:07.405Z,34.30
2019-03-29T18:00:40.651Z,34.20
2019-03-29T18:03:13.869Z,34.10
2019-03-29T18:05:47.124Z,34.20
2019-03-29T18:08:20.413Z,34.30
2019-03-29T18:10:53.650Z,34.30
2019-03-29T18:13:26.948Z,34.40
2019-03-29T18:16:00.242Z,34.90
2019-03-29T18:18:33.463Z,35.50
2019-03-29T18:21:06.705Z,34.90
2019-03-29T18:23:39.918Z,34.80
2019-03-29T18:26:13.163Z,35.00
2019-03-29T18:28:46.312Z,35.30
2019-03-29T18:31:19.681Z,35.40
2019-03-29T18:33:53.280Z,35.30
2019-03-29T18:36:26.519Z,35.30
2019-03-29T18:38:59.741Z,35.50
2019-03-29T18:41:33.004Z,35.50
2019-03-29T18:44:06.247Z,35.60
2019-03-29T18:46:44.735Z,35.70
2019-03-29T18:49:14.423Z,35.70
2019-03-29T18:51:47.711Z,35.80
2019-03-29T18:54:20.937Z,35.80
2019-03-29T18:56:54.187Z,35.90
2019-03-29T18:59:27.399Z,36.00
2019-03-29T19:02:00.640Z,35.90
2019-03-29T19:04:33.859Z,36.00
2019-03-29T19:07:07.113Z,35.90
2019-03-29T19:09:40.333Z,36.10
2019-03-29T19:12:13.614Z,35.90
2019-03-29T19:14:48.460Z,36.00
2019-03-29T19:17:21.707Z,35.80
2019-03-29T19:19:54.992Z,36.00
2019-03-29T19:22:28.348Z,36.00
2019-03-29T19:25:02.715Z,36.00
2019-03-29T19:27:35.951Z,36.00
2019-03-29T19:30:10.185Z,36.10
2019-03-29T19:32:43.354Z,36.20
2019-03-29T19:35:16.567Z,36.20
2019-03-29T19:37:49.817Z,36.30
2019-03-29T19:40:23.032Z,36.50
2019-03-29T19:42:56.272Z,36.40
2019-03-29T19:45:29.524Z,36.50
2019-03-29T19:48:02.836Z,36.70
2019-03-29T19:50:36.218Z,36.70
2019-03-29T19:53:09.888Z,36.70
2019-03-29T19:55:43.143Z,36.90
2019-03-29T19:58:16.428Z,37.00
2019-03-29T20:00:49.697Z,37.00
2019-03-29T20:03:22.984Z,37.00
2019-03-29T20:05:56.213Z,37.00
2019-03-29T20:08:29.514Z,37.10
2019-03-29T20:11:02.691Z,37.10
2019-03-29T20:13:35.946Z,37.30
2019-03-29T20:16:09.176Z,37.40
2019-03-29T20:18:43.498Z,37.30
2019-03-29T20:21:16.728Z,37.40
2019-03-29T20:23:49.988Z,37.30
2019-03-29T20:26:23.207Z,37.20
2019-03-29T20:28:56.573Z,37.20
2019-03-29T20:31:29.801Z,37.30
2019-03-29T20:34:03.080Z,37.30
2019-03-29T20:36:36.333Z,37.50
2019-03-29T20:39:09.977Z,38.10
2019-03-29T20:41:44.390Z,38.10
2019-03-29T20:44:17.742Z,37.50
2019-03-29T20:46:50.977Z,37.60
2019-03-29T20:49:24.277Z,37.70
2019-03-29T20:51:57.556Z,37.70
2019-03-29T20:54:30.915Z,37.90
2019-03-29T20:57:04.152Z,37.90
2019-03-29T20:59:37.427Z,38.00
2019-03-29T21:02:10.652Z,38.00
2019-03-29T21:04:43.981Z,38.10
2019-03-29T21:07:17.209Z,38.20
2019-03-29T21:09:50.481Z,38.20
2019-03-29T21:12:23.699Z,38.40
2019-03-29T21:14:56.950Z,38.20
2019-03-29T21:17:30.179Z,38.20
2019-03-29T21:20:03.430Z,38.20
2019-03-29T21:22:37.643Z,38.30
2019-03-29T21:25:10.953Z,38.40
2019-03-29T21:27:45.268Z,38.30
2019-03-29T21:30:18.524Z,38.20
2019-03-29T21:32:51.769Z,38.20
2019-03-29T21:35:25.034Z,38.80
2019-03-29T21:37:58.275Z,38.10
2019-03-29T21:40:31.530Z,38.00
2019-03-29T21:43:04.787Z,38.80
2019-03-29T21:45:38.051Z,38.00
2019-03-29T21:48:27.903Z,38.00
2019-03-29T21:50:47.346Z,38.00
2019-03-29T21:53:20.630Z,38.10
2019-03-29T21:55:53.864Z,38.30
2019-03-29T21:58:27.216Z,38.30
2019-03-29T22:01:00.482Z,38.30
2019-03-29T22:03:33.782Z,38.50
2019-03-29T22:06:07.098Z,38.50
2019-03-29T22:08:40.330Z,38.70
2019-03-29T22:11:13.585Z,38.70
2019-03-29T22:13:47.190Z,38.80
2019-03-29T22:16:20.589Z,38.80
2019-03-29T22:18:53.823Z,38.90
2019-03-29T22:21:27.066Z,38.90
2019-03-29T22:24:00.330Z,38.80
2019-03-29T22:26:33.555Z,38.90
2019-03-29T22:29:06.927Z,38.90
2019-03-29T22:31:40.356Z,39.10
2019-03-29T22:34:13.584Z,39.00
2019-03-29T22:36:47.157Z,39.10
2019-03-29T22:39:20.721Z,39.10
2019-03-29T22:41:54.072Z,39.10
2019-03-29T22:44:27.300Z,39.10
2019-03-29T22:47:00.552Z,39.00
2019-03-29T22:49:33.805Z,38.90
2019-03-29T22:52:07.176Z,38.90
2019-03-29T22:54:40.446Z,39.00
2019-03-29T22:57:13.654Z,38.90
2019-03-29T22:59:47.268Z,38.80
2019-03-29T23:02:20.549Z,38.90
2019-03-29T23:04:53.843Z,38.90
2019-03-29T23:07:27.126Z,38.90
2019-03-29T23:10:00.388Z,38.90
2019-03-29T23:12:33.639Z,38.90
2019-03-29T23:15:08.308Z,39.00
2019-03-29T23:17:41.558Z,39.00
2019-03-29T23:20:14.870Z,39.00
2019-03-29T23:22:48.124Z,39.00
2019-03-29T23:25:21.359Z,39.70
2019-03-29T23:27:54.639Z,39.00
2019-03-29T23:30:27.936Z,39.10
2019-03-29T23:33:01.179Z,39.20
2019-03-29T23:35:34.470Z,39.20
2019-03-29T23:38:07.731Z,39.40
2019-03-29T23:40:41.020Z,39.30
2019-03-29T23:43:14.298Z,39.40
2019-03-29T23:45:47.522Z,39.30
2019-03-29T23:48:20.770Z,39.30
2019-03-29T23:50:54.109Z,39.30
2019-03-29T23:53:27.440Z,39.30
2019-03-29T23:56:00.671Z,39.30
2019-03-29T23:58:33.956Z,39.30
